Time;durP1;ratioP1;P1;durP2;ratioP2;P2;SDS_P1;SDS_P2;PMS_P1;PMS_P2;Temp;Humidity;BMP_temperature;BMP_pressure;BME280_temperature;BME280_humidity;BME280_pressure;Samples;Min_cycle;Max_cycle;Signal;HPM_P1;HPM_P2
2023/03/02 00:01:03;;;;;;;3.92;2.47;;;19.40;51.50;;;;;;5034945;28;20037;-69
2023/03/02 00:03:29;;;;;;;4.47;2.75;;;19.40;51.40;;;;;;5034968;28;20050;-69
2023/03/02 00:05:54;;;;;;;4.15;2.22;;;19.40;51.40;;;;;;5016756;28;20056;-69
2023/03/02 00:08:20;;;;;;;3.90;2.70;;;19.40;51.40;;;;;;5035182;28;20037;-68
2023/03/02 00:10:45;;;;;;;7.53;2.42;;;19.40;51.40;;;;;;5017202;28;20064;-69
2023/03/02 00:13:11;;;;;;;3.95;2.42;;;19.40;51.40;;;;;;5034319;28;20482;-68
2023/03/02 00:15:37;;;;;;;4.57;2.10;;;19.40;51.40;;;;;;5033343;28;20128;-69
2023/03/02 00:18:02;;;;;;;4.15;2.50;;;19.30;51.30;;;;;;5033733;28;20049;-69
2023/03/02 00:20:28;;;;;;;4.43;2.60;;;19.30;51.30;;;;;;5033831;28;20041;-69
2023/03/02 00:22:53;;;;;;;4.28;2.38;;;19.30;51.30;;;;;;5034823;28;20041;-69
2023/03/02 00:25:19;;;;;;;3.80;2.38;;;19.30;51.30;;;;;;5034690;28;20091;-68
2023/03/02 00:27:45;;;;;;;3.80;2.40;;;19.30;51.30;;;;;;5033948;28;20125;-69
2023/03/02 00:30:11;;;;;;;3.53;2.10;;;19.30;51.30;;;;;;5034837;28;20038;-69
2023/03/02 00:32:36;;;;;;;4.20;2.30;;;19.30;51.30;;;;;;5034460;28;20046;-69
2023/03/02 00:35:03;;;;;;;3.50;2.38;;;19.20;51.20;;;;;;5032297;28;20578;-68
2023/03/02 00:37:28;;;;;;;4.88;2.58;;;19.30;51.40;;;;;;5016437;28;20048;-69
2023/03/02 00:39:54;;;;;;;5.10;2.55;;;19.20;51.20;;;;;;5034333;28;20124;-69
2023/03/02 00:42:20;;;;;;;4.78;2.70;;;19.20;51.20;;;;;;5033312;28;20061;-69
2023/03/02 00:44:45;;;;;;;5.15;2.65;;;19.30;51.30;;;;;;5040715;28;20105;-69
2023/03/02 00:47:11;;;;;;;4.05;2.50;;;19.20;51.20;;;;;;5053452;28;20404;-69
2023/03/02 00:49:36;;;;;;;4.32;2.60;;;19.20;51.20;;;;;;5053934;28;20044;-69
2023/03/02 00:52:03;;;;;;;5.47;2.78;;;19.20;51.20;;;;;;5054424;28;20037;-69
2023/03/02 00:54:28;;;;;;;4.70;2.55;;;19.20;51.20;;;;;;5052057;28;20091;-69
2023/03/02 00:56:54;;;;;;;4.20;2.70;;;19.20;51.20;;;;;;5053680;28;20099;-69
2023/03/02 00:59:26;;;;;;;4.57;3.17;;;19.20;51.20;;;;;;5054241;28;20041;-68
2023/03/02 01:01:58;;;;;;;4.15;2.45;;;19.20;51.10;;;;;;5052036;28;20074;-70
2023/03/02 01:04:32;;;;;;;3.97;2.53;;;19.20;51.20;;;;;;5053545;28;20045;-68
2023/03/02 01:07:02;;;;;;;5.18;2.85;;;19.20;51.20;;;;;;5052943;28;20063;-69
2023/03/02 01:09:28;;;;;;;4.15;2.60;;;19.20;51.20;;;;;;5051877;28;20044;-68
2023/03/02 01:11:54;;;;;;;3.15;2.25;;;19.20;51.20;;;;;;5054060;28;20365;-68
2023/03/02 01:14:19;;;;;;;4.10;2.50;;;19.10;51.10;;;;;;5052305;28;20178;-69
2023/03/02 01:16:46;;;;;;;4.78;2.80;;;19.10;51.10;;;;;;5051413;28;20041;-69
2023/03/02 01:19:12;;;;;;;4.75;3.10;;;19.10;51.10;;;;;;5050466;28;20041;-69
2023/03/02 01:21:38;;;;;;;4.30;2.67;;;19.10;51.10;;;;;;5033492;28;20566;-69
2023/03/02 01:24:04;;;;;;;4.40;2.67;;;19.10;51.10;;;;;;5030702;28;20068;-69
2023/03/02 01:26:29;;;;;;;5.43;2.63;;;19.10;51.10;;;;;;5033093;28;20051;-68
2023/03/02 01:28:55;;;;;;;4.95;2.95;;;19.10;51.10;;;;;;5033477;28;20404;-69
2023/03/02 01:31:24;;;;;;;4.88;2.83;;;19.10;51.10;;;;;;5033134;28;20088;-68
2023/03/02 01:33:50;;;;;;;3.85;2.70;;;19.10;51.10;;;;;;5033670;28;20489;-69
2023/03/02 01:36:16;;;;;;;3.78;2.58;;;19.00;51.10;;;;;;5031766;28;20041;-68
2023/03/02 01:38:41;;;;;;;4.50;2.83;;;19.00;51.10;;;;;;5032468;28;20041;-69
2023/03/02 01:41:07;;;;;;;4.88;3.15;;;19.00;51.00;;;;;;5033431;28;20099;-69
2023/03/02 01:43:33;;;;;;;4.82;2.92;;;19.00;51.00;;;;;;5032453;28;20107;-69
2023/03/02 01:46:01;;;;;;;4.38;3.17;;;19.00;51.00;;;;;;5033342;28;20041;-69
2023/03/02 01:48:37;;;;;;;5.25;3.22;;;19.00;51.00;;;;;;5031568;28;20042;-69
2023/03/02 01:51:03;;;;;;;3.92;2.50;;;19.00;50.90;;;;;;5030625;28;20112;-69
2023/03/02 01:53:29;;;;;;;4.25;3.05;;;19.00;51.00;;;;;;5013300;28;20218;-69
2023/03/02 01:55:56;;;;;;;5.03;2.88;;;19.00;51.00;;;;;;5031826;28;20041;-69
2023/03/02 01:58:21;;;;;;;4.25;2.85;;;18.90;50.90;;;;;;5031359;28;20067;-69
2023/03/02 02:00:47;;;;;;;5.07;3.00;;;19.00;51.00;;;;;;5031952;28;20053;-69
2023/03/02 02:03:20;;;;;;;4.78;3.15;;;18.90;50.90;;;;;;5015284;28;20178;-69
2023/03/02 02:05:51;;;;;;;4.45;2.95;;;18.90;50.90;;;;;;5032223;28;20045;-69
2023/03/02 02:08:17;;;;;;;4.57;3.03;;;18.90;50.90;;;;;;5031796;28;20053;-69
2023/03/02 02:10:42;;;;;;;5.88;3.35;;;18.90;50.90;;;;;;5031384;28;20050;-69
2023/03/02 02:13:09;;;;;;;5.10;3.30;;;18.90;50.90;;;;;;5030883;28;20033;-70
2023/03/02 02:15:37;;;;;;;5.10;3.58;;;18.90;50.80;;;;;;5032413;28;20042;-69
2023/03/02 02:18:03;;;;;;;5.13;3.37;;;18.90;50.80;;;;;;5031860;28;20052;-69
2023/03/02 02:20:34;;;;;;;5.30;3.35;;;18.90;50.80;;;;;;5030916;28;20049;-69
2023/03/02 02:23:42;;;;;;;4.15;3.10;;;18.90;50.70;;;;;;5032756;28;20061;-70
2023/03/02 02:26:11;;;;;;;5.10;3.08;;;18.90;50.70;;;;;;5031324;28;20041;-70
2023/03/02 02:28:50;;;;;;;5.30;3.10;;;18.80;50.60;;;;;;5031219;28;20037;-70
2023/03/02 02:31:38;;;;;;;4.65;3.10;;;18.90;50.70;;;;;;5031344;28;20041;-69
2023/03/02 02:34:13;;;;;;;5.25;3.08;;;18.90;50.60;;;;;;5026805;28;20064;-69
2023/03/02 02:36:42;;;;;;;5.13;3.17;;;18.90;50.60;;;;;;5032141;28;20069;-70
2023/03/02 02:39:12;;;;;;;5.20;3.20;;;18.90;50.60;;;;;;5013722;28;20447;-70
2023/03/02 02:41:38;;;;;;;4.68;3.13;;;18.90;50.60;;;;;;5014220;28;20068;-69
2023/03/02 02:44:04;;;;;;;4.88;3.40;;;18.90;50.60;;;;;;5014778;28;20050;-69
2023/03/02 02:46:29;;;;;;;5.38;3.00;;;18.90;50.60;;;;;;5014500;28;20513;-70
2023/03/02 02:48:55;;;;;;;4.85;3.13;;;18.90;50.60;;;;;;5030587;28;20037;-70
2023/03/02 02:51:24;;;;;;;4.30;3.08;;;18.90;50.60;;;;;;5030907;28;20080;-69
2023/03/02 02:53:57;;;;;;;4.20;2.90;;;18.90;50.50;;;;;;5018359;28;20075;-69
2023/03/02 02:56:26;;;;;;;5.25;3.30;;;18.90;50.60;;;;;;5051126;28;20068;-69
2023/03/02 02:58:52;;;;;;;4.28;3.00;;;18.90;50.60;;;;;;5034652;28;20460;-69
2023/03/02 03:01:19;;;;;;;5.25;3.08;;;18.90;50.50;;;;;;5035260;28;20038;-69
2023/03/02 03:03:56;;;;;;;5.38;3.17;;;18.90;50.50;;;;;;4994640;28;20070;-69
2023/03/02 03:06:24;;;;;;;4.75;3.15;;;18.90;50.50;;;;;;5048797;28;20081;-69
2023/03/02 03:08:54;;;;;;;4.55;3.15;;;18.90;50.50;;;;;;5055744;28;20087;-69
2023/03/02 03:11:22;;;;;;;4.75;3.08;;;18.90;50.50;;;;;;5055175;28;20396;-68
2023/03/02 03:13:56;;;;;;;5.13;3.20;;;18.90;50.50;;;;;;5054677;28;20391;-69
2023/03/02 03:16:21;;;;;;;5.25;3.45;;;18.90;50.60;;;;;;5054335;28;20049;-69
2023/03/02 03:18:47;;;;;;;4.55;3.15;;;18.90;50.60;;;;;;5038040;28;20083;-68
2023/03/02 03:21:13;;;;;;;5.38;3.25;;;18.90;50.60;;;;;;5038102;28;20053;-68
2023/03/02 03:23:38;;;;;;;4.95;2.88;;;18.90;51.20;;;;;;5055044;28;20507;-69
2023/03/02 03:26:05;;;;;;;4.50;2.80;;;19.00;50.60;;;;;;5055916;28;20420;-68
2023/03/02 03:28:30;;;;;;;5.35;3.25;;;19.00;50.60;;;;;;5054299;28;20037;-69
2023/03/02 03:30:56;;;;;;;3.80;2.63;;;19.00;50.60;;;;;;5055211;28;20051;-68
2023/03/02 03:33:22;;;;;;;5.70;2.80;;;19.00;50.60;;;;;;5054694;28;20045;-69
2023/03/02 03:35:47;;;;;;;5.40;3.05;;;19.00;50.60;;;;;;5054398;28;20496;-68
2023/03/02 03:38:13;;;;;;;4.45;3.00;;;19.00;50.60;;;;;;5054733;28;20045;-69
2023/03/02 03:40:38;;;;;;;4.10;3.03;;;19.10;50.60;;;;;;5053997;28;20123;-68
2023/03/02 03:43:04;;;;;;;4.05;3.05;;;19.10;50.50;;;;;;5053552;28;20060;-69
2023/03/02 03:45:30;;;;;;;4.32;3.13;;;19.10;50.50;;;;;;5054892;28;20400;-69
2023/03/02 03:47:55;;;;;;;4.88;3.40;;;19.10;50.50;;;;;;5055469;28;20072;-69
2023/03/02 03:50:21;;;;;;;5.05;3.25;;;19.10;50.50;;;;;;5054828;28;20120;-69
2023/03/02 03:52:47;;;;;;;5.10;3.00;;;19.10;50.50;;;;;;5053747;28;20044;-69
2023/03/02 03:55:13;;;;;;;4.97;2.83;;;19.20;50.60;;;;;;5054158;28;20040;-69
2023/03/02 03:57:38;;;;;;;4.78;2.80;;;19.20;50.50;;;;;;5053179;28;20049;-69
2023/03/02 04:00:06;;;;;;;4.47;2.88;;;19.20;50.50;;;;;;5055063;28;20051;-68
2023/03/02 04:02:32;;;;;;;4.70;3.13;;;19.20;50.50;;;;;;5055174;28;20049;-68
2023/03/02 04:05:05;;;;;;;5.53;3.10;;;19.20;50.40;;;;;;5054288;28;20055;-69
2023/03/02 04:07:34;;;;;;;4.82;2.95;;;19.20;50.50;;;;;;5053554;28;20044;-69
2023/03/02 04:10:02;;;;;;;4.57;3.08;;;19.20;50.40;;;;;;5054996;28;20056;-69
2023/03/02 04:12:32;;;;;;;4.95;2.95;;;19.20;50.40;;;;;;5053984;28;20037;-69
2023/03/02 04:14:57;;;;;;;5.32;3.05;;;19.20;50.40;;;;;;5053608;28;20389;-69
2023/03/02 04:17:23;;;;;;;5.15;3.05;;;19.30;50.50;;;;;;5053996;28;20550;-69
2023/03/02 04:19:49;;;;;;;6.35;3.47;;;19.30;50.50;;;;;;5054290;28;20112;-68
2023/03/02 04:22:15;;;;;;;4.55;2.85;;;19.30;50.50;;;;;;5052815;28;20416;-69
2023/03/02 04:24:41;;;;;;;5.35;3.22;;;19.30;50.40;;;;;;5054544;28;20076;-69
2023/03/02 04:27:06;;;;;;;5.63;3.22;;;19.30;50.40;;;;;;5052954;28;20087;-69
2023/03/02 04:29:32;;;;;;;6.57;3.38;;;19.40;50.50;;;;;;5054650;28;20044;-69
2023/03/02 04:31:58;;;;;;;4.90;2.88;;;19.40;50.50;;;;;;5053395;28;20041;-69
2023/03/02 04:34:26;;;;;;;5.30;3.33;;;19.40;50.40;;;;;;5053123;28;20049;-69
2023/03/02 04:36:51;;;;;;;5.07;3.28;;;19.40;50.40;;;;;;5054647;28;20100;-69
2023/03/02 04:39:17;;;;;;;4.68;2.85;;;19.40;50.40;;;;;;5052520;28;20475;-69
2023/03/02 04:41:43;;;;;;;5.50;3.40;;;19.40;50.40;;;;;;5052766;28;20061;-69
2023/03/02 04:44:09;;;;;;;4.45;2.63;;;19.50;50.50;;;;;;5054438;28;20136;-69
2023/03/02 04:46:34;;;;;;;4.70;3.20;;;19.50;50.40;;;;;;5053521;28;20036;-69
2023/03/02 04:49:00;;;;;;;5.63;3.22;;;19.50;50.40;;;;;;5054257;28;20051;-69
2023/03/02 04:51:28;;;;;;;5.18;3.50;;;19.50;50.40;;;;;;5053959;28;20048;-69
2023/03/02 04:53:55;;;;;;;5.50;3.42;;;19.50;50.40;;;;;;5053632;28;20044;-69
2023/03/02 04:56:21;;;;;;;5.72;3.50;;;19.50;50.40;;;;;;5054144;28;20044;-69
2023/03/02 04:58:47;;;;;;;6.13;3.55;;;19.50;50.40;;;;;;5053969;28;20032;-69
2023/03/02 05:01:12;;;;;;;4.82;2.85;;;19.50;51.10;;;;;;5047122;28;20041;-68
2023/03/02 05:03:38;;;;;;;6.10;3.88;;;19.60;50.40;;;;;;5033698;28;20409;-69
2023/03/02 05:06:04;;;;;;;5.57;3.38;;;19.60;50.40;;;;;;5032174;28;20508;-69
2023/03/02 05:08:30;;;;;;;5.10;3.30;;;19.60;50.40;;;;;;5032737;28;20042;-69
2023/03/02 05:10:57;;;;;;;5.50;3.70;;;19.60;50.40;;;;;;5033942;28;20089;-69
2023/03/02 05:13:25;;;;;;;4.78;3.15;;;19.60;50.40;;;;;;5034123;28;20107;-69
2023/03/02 05:15:52;;;;;;;5.85;3.60;;;19.60;50.40;;;;;;5033129;28;20515;-69
2023/03/02 05:18:18;;;;;;;5.53;3.58;;;19.60;50.40;;;;;;5032909;28;20072;-69
2023/03/02 05:20:43;;;;;;;5.68;3.60;;;19.60;50.30;;;;;;5032926;28;20500;-68
2023/03/02 05:23:09;;;;;;;6.10;3.55;;;19.70;50.40;;;;;;5032824;28;20054;-69
2023/03/02 05:25:36;;;;;;;5.85;3.95;;;19.70;50.30;;;;;;5033497;28;20116;-69
2023/03/02 05:28:01;;;;;;;5.95;3.70;;;19.60;50.30;;;;;;5033802;28;20040;-68
2023/03/02 05:30:27;;;;;;;5.22;3.53;;;19.70;50.30;;;;;;5032487;28;20049;-69
2023/03/02 05:32:53;;;;;;;5.50;3.53;;;19.70;50.30;;;;;;5033598;28;20444;-68
2023/03/02 05:35:19;;;;;;;5.32;3.40;;;19.70;50.30;;;;;;5033648;28;20456;-69
2023/03/02 05:37:45;;;;;;;5.60;3.38;;;19.70;50.30;;;;;;5032426;28;20080;-68
2023/03/02 05:40:13;;;;;;;5.32;3.53;;;19.80;50.30;;;;;;5031151;28;20061;-69
2023/03/02 05:42:39;;;;;;;6.20;4.18;;;19.70;50.30;;;;;;5032135;28;20417;-69
2023/03/02 05:45:05;;;;;;;5.70;3.58;;;19.70;50.20;;;;;;5033460;28;20072;-69
2023/03/02 05:47:31;;;;;;;6.72;4.47;;;19.80;50.30;;;;;;5033049;28;20037;-69
2023/03/02 05:49:58;;;;;;;6.53;4.22;;;19.70;50.20;;;;;;5032589;28;20397;-69
2023/03/02 05:52:23;;;;;;;6.72;3.85;;;19.80;50.30;;;;;;5032794;28;20184;-69
2023/03/02 05:54:49;;;;;;;7.05;4.32;;;19.80;50.30;;;;;;5031772;28;20139;-69
2023/03/02 05:57:15;;;;;;;6.30;3.95;;;19.80;50.20;;;;;;5032530;28;20029;-69
2023/03/02 05:59:40;;;;;;;5.93;4.18;;;19.80;50.20;;;;;;5032766;28;20485;-69
2023/03/02 06:02:06;;;;;;;5.90;3.90;;;19.80;50.20;;;;;;5033092;28;20041;-68
2023/03/02 06:04:31;;;;;;;5.85;3.50;;;19.80;50.20;;;;;;5031925;28;20045;-68
2023/03/02 06:06:57;;;;;;;7.22;4.43;;;19.80;50.10;;;;;;5031528;28;20037;-69
2023/03/02 06:09:22;;;;;;;6.47;3.97;;;19.80;50.10;;;;;;5031248;28;20098;-69
2023/03/02 06:11:48;;;;;;;6.35;3.90;;;19.90;50.90;;;;;;5030590;28;20048;-69
2023/03/02 06:14:13;;;;;;;6.75;4.05;;;19.90;50.20;;;;;;5032835;28;20053;-71
2023/03/02 06:16:39;;;;;;;7.20;4.15;;;19.90;50.20;;;;;;5030568;28;20046;-72
2023/03/02 06:19:05;;;;;;;6.97;3.92;;;19.80;50.00;;;;;;5032035;28;20120;-71
2023/03/02 06:21:30;;;;;;;7.65;4.18;;;19.90;50.00;;;;;;5032298;28;20037;-72
2023/03/02 06:23:56;;;;;;;9.77;4.25;;;19.90;50.00;;;;;;5032892;28;20046;-72
2023/03/02 06:26:21;;;;;;;7.53;4.25;;;19.90;50.00;;;;;;5031020;28;20095;-71
2023/03/02 06:28:47;;;;;;;7.45;4.45;;;19.90;50.10;;;;;;5032005;28;20049;-72
2023/03/02 06:31:13;;;;;;;7.63;4.38;;;19.90;50.10;;;;;;5032746;28;20036;-72
2023/03/02 06:33:38;;;;;;;7.65;4.28;;;19.90;50.20;;;;;;5042287;28;20404;-73
2023/03/02 06:36:04;;;;;;;7.30;4.47;;;19.90;50.20;;;;;;5050234;28;20079;-73
2023/03/02 06:38:30;;;;;;;7.10;4.30;;;19.90;50.20;;;;;;5032215;28;20392;-70
2023/03/02 06:40:55;;;;;;;7.95;4.45;;;19.90;50.30;;;;;;5037325;28;20546;-71
2023/03/02 06:43:21;;;;;;;7.80;4.10;;;19.90;50.30;;;;;;5053363;28;20516;-73
2023/03/02 06:45:46;;;;;;;8.15;4.28;;;19.90;50.40;;;;;;5057169;28;20040;-73
2023/03/02 06:48:12;;;;;;;8.00;4.05;;;19.90;50.30;;;;;;5058550;28;20041;-72
2023/03/02 06:50:38;;;;;;;6.90;3.92;;;19.90;50.40;;;;;;5041563;28;20033;-72
2023/03/02 06:53:03;;;;;;;8.77;4.80;;;19.90;50.40;;;;;;5038294;28;20049;-64
2023/03/02 06:55:29;;;;;;;7.55;4.53;;;19.90;50.60;;;;;;5038961;28;20049;-63
2023/03/02 06:57:54;;;;;;;10.23;4.90;;;19.90;50.80;;;;;;5049808;28;20041;-72
2023/03/02 07:00:26;;;;;;;7.38;4.60;;;20.00;50.90;;;;;;5057388;28;20130;-70
2023/03/02 07:02:53;;;;;;;11.18;4.32;;;20.00;51.00;;;;;;5058884;28;20040;-70
2023/03/02 07:05:18;;;;;;;7.50;4.53;;;20.00;51.10;;;;;;5058755;28;20055;-71
2023/03/02 07:07:47;;;;;;;7.03;4.47;;;20.00;51.10;;;;;;5055725;28;20045;-63
2023/03/02 07:10:12;;;;;;;;;;;20.00;51.20;;;;;;5057135;28;20095;-68
2023/03/02 07:12:39;;;;;;;7.78;4.53;;;20.00;51.20;;;;;;5047337;28;19956;-69
2023/03/02 07:15:09;;;;;;;8.35;4.50;;;20.00;51.20;;;;;;5037284;28;20489;-70
2023/03/02 07:17:35;;;;;;;8.05;5.03;;;20.00;52.00;;;;;;5044495;28;20096;-71
2023/03/02 07:20:04;;;;;;;6.90;4.60;;;20.00;51.40;;;;;;5056588;28;20044;-69
2023/03/02 07:22:29;;;;;;;7.90;4.53;;;20.00;51.40;;;;;;5056434;28;20070;-69
2023/03/02 07:24:55;;;;;;;8.05;4.88;;;20.00;51.40;;;;;;5058862;28;20091;-68
2023/03/02 07:27:20;;;;;;;6.82;4.45;;;20.00;51.40;;;;;;5058676;28;20037;-71
2023/03/02 07:29:46;;;;;;;10.13;4.68;;;20.10;51.50;;;;;;5057239;28;20041;-70
2023/03/02 07:32:11;;;;;;;7.47;4.70;;;20.00;51.40;;;;;;5058531;28;20481;-68
2023/03/02 07:34:37;;;;;;;8.05;4.65;;;20.10;51.50;;;;;;5057864;28;20511;-70
2023/03/02 07:37:03;;;;;;;6.88;4.40;;;20.10;51.40;;;;;;5057820;28;20041;-71
2023/03/02 07:39:29;;;;;;;6.80;4.55;;;20.10;51.30;;;;;;5041536;28;20051;-73
2023/03/02 07:42:00;;;;;;;7.03;4.70;;;20.10;51.20;;;;;;5037953;28;20128;-73
2023/03/02 07:44:26;;;;;;;7.25;4.70;;;20.10;51.20;;;;;;5038230;28;20495;-72
2023/03/02 07:46:51;;;;;;;6.65;4.38;;;20.10;51.30;;;;;;5038044;28;20116;-72
2023/03/02 07:49:17;;;;;;;9.43;4.60;;;20.10;51.20;;;;;;5034093;28;20049;-68
2023/03/02 07:51:42;;;;;;;8.52;4.13;;;20.10;51.30;;;;;;5030648;28;20076;-67
2023/03/02 07:54:08;;;;;;;8.82;4.53;;;20.10;51.30;;;;;;5032879;28;20068;-69
2023/03/02 07:56:34;;;;;;;7.20;4.35;;;20.10;51.30;;;;;;5027959;28;20042;-69
2023/03/02 07:59:02;;;;;;;6.50;4.20;;;20.10;51.20;;;;;;5029855;28;20041;-69
2023/03/02 08:01:28;;;;;;;;;;;20.10;51.20;;;;;;5035087;28;20033;-68
2023/03/02 08:03:53;;;;;;;6.60;4.65;;;20.10;51.20;;;;;;5051270;28;20023;-69
2023/03/02 08:06:19;;;;;;;6.63;4.40;;;20.00;51.10;;;;;;5034263;28;20033;-68
2023/03/02 08:08:45;;;;;;;6.50;3.97;;;20.10;51.10;;;;;;5042811;28;20442;-68
2023/03/02 08:11:12;;;;;;;8.13;4.30;;;20.10;51.70;;;;;;5033689;28;20496;-69
2023/03/02 08:13:38;;;;;;;6.63;4.00;;;20.10;51.00;;;;;;5034666;28;20042;-68
2023/03/02 08:16:05;;;;;;;6.78;4.00;;;20.10;51.00;;;;;;5033722;28;20370;-67
2023/03/02 08:18:31;;;;;;;5.20;3.45;;;20.10;51.10;;;;;;5036612;28;20060;-68
2023/03/02 08:20:56;;;;;;;6.28;3.80;;;20.10;51.10;;;;;;5035820;28;20046;-68
2023/03/02 08:23:22;;;;;;;7.60;4.10;;;20.00;51.10;;;;;;5033647;28;20052;-67
2023/03/02 08:25:48;;;;;;;6.20;3.80;;;20.10;51.30;;;;;;5046345;28;20044;-68
2023/03/02 08:28:13;;;;;;;5.18;3.42;;;20.10;51.20;;;;;;5034317;28;20076;-68
2023/03/02 08:30:39;;;;;;;6.15;4.03;;;20.10;51.20;;;;;;5034201;28;20041;-67
2023/03/02 08:33:04;;;;;;;5.43;3.58;;;20.10;51.20;;;;;;5033540;28;20049;-68
2023/03/02 08:35:30;;;;;;;7.47;3.88;;;20.10;51.30;;;;;;5033974;28;20095;-68
2023/03/02 08:37:55;;;;;;;5.55;3.65;;;20.10;51.30;;;;;;5033966;28;20042;-66
2023/03/02 08:40:21;;;;;;;6.88;3.83;;;20.10;51.20;;;;;;5034219;28;20049;-69
2023/03/02 08:42:48;;;;;;;6.65;4.10;;;20.10;51.30;;;;;;5033281;28;20060;-68
2023/03/02 08:45:14;;;;;;;6.13;3.55;;;20.10;51.30;;;;;;5034061;28;20057;-70
2023/03/02 08:47:39;;;;;;;6.45;3.80;;;20.10;51.20;;;;;;5033250;28;20052;-68
2023/03/02 08:50:05;;;;;;;5.75;3.72;;;20.10;51.30;;;;;;5034198;28;20038;-68
2023/03/02 08:52:33;;;;;;;5.65;3.22;;;20.10;51.30;;;;;;5033196;28;20045;-68
2023/03/02 08:54:59;;;;;;;;;;;20.10;51.20;;;;;;5034382;28;20120;-67
2023/03/02 08:57:25;;;;;;;4.85;3.00;;;20.00;51.20;;;;;;5033904;28;20120;-69
2023/03/02 08:59:51;;;;;;;6.32;3.20;;;20.00;51.20;;;;;;5033408;28;20065;-68
2023/03/02 09:02:16;;;;;;;6.50;3.85;;;20.10;51.20;;;;;;5033974;28;20053;-68
2023/03/02 09:04:45;;;;;;;6.22;3.47;;;20.00;51.20;;;;;;5033767;28;20484;-68
2023/03/02 09:07:10;;;;;;;5.40;3.58;;;20.10;51.20;;;;;;5032982;28;20067;-67
2023/03/02 09:09:36;;;;;;;4.75;3.17;;;20.10;51.20;;;;;;5031974;28;20083;-62
2023/03/02 09:12:01;;;;;;;6.63;3.42;;;20.10;51.30;;;;;;5032928;28;20132;-71
2023/03/02 09:14:27;;;;;;;4.50;3.03;;;20.10;51.20;;;;;;5032927;28;20045;-71
2023/03/02 09:16:53;;;;;;;5.15;3.25;;;20.10;51.20;;;;;;5050237;28;20068;-71
2023/03/02 09:19:19;;;;;;;5.22;2.80;;;20.10;51.10;;;;;;5050475;28;20045;-71
2023/03/02 09:21:48;;;;;;;8.23;3.60;;;20.00;51.10;;;;;;5032348;28;20045;-72
2023/03/02 09:24:14;;;;;;;5.80;3.00;;;20.00;50.90;;;;;;5033527;28;20488;-64
2023/03/02 09:26:39;;;;;;;5.68;2.90;;;20.10;50.90;;;;;;5032654;28;20489;-68
2023/03/02 09:29:06;;;;;;;5.93;3.40;;;20.00;50.90;;;;;;5044745;28;20469;-69
2023/03/02 09:31:32;;;;;;;6.57;3.53;;;20.00;50.90;;;;;;5033877;28;20034;-69
2023/03/02 09:34:00;;;;;;;6.40;3.22;;;20.10;51.10;;;;;;5033088;28;20037;-69
2023/03/02 09:36:26;;;;;;;5.60;3.10;;;20.10;51.10;;;;;;5032536;28;20045;-69
2023/03/02 09:38:52;;;;;;;4.05;2.80;;;20.00;51.10;;;;;;5033159;28;20452;-69
2023/03/02 09:41:21;;;;;;;6.68;3.05;;;20.10;51.10;;;;;;5031756;28;20131;-68
2023/03/02 09:44:19;;;;;;;5.00;2.80;;;20.00;51.00;;;;;;5032272;28;20053;-69
2023/03/02 09:46:49;;;;;;;4.65;2.85;;;20.10;51.10;;;;;;5031640;28;20160;-68
2023/03/02 09:49:53;;;;;;;6.70;3.05;;;20.00;51.10;;;;;;5031681;28;20103;-68
2023/03/02 09:52:40;;;;;;;6.07;3.05;;;20.10;51.20;;;;;;5041537;28;20505;-73
2023/03/02 09:55:19;;;;;;;7.53;2.90;;;20.10;51.20;;;;;;5040324;28;20489;-74
2023/03/02 09:57:45;;;;;;;5.63;3.03;;;20.00;51.10;;;;;;5013726;28;20379;-70
2023/03/02 10:00:21;;;;;;;5.20;2.92;;;20.10;51.10;;;;;;5033161;28;20108;-69
2023/03/02 10:02:48;;;;;;;4.95;2.80;;;20.00;51.20;;;;;;5031109;28;20069;-69
2023/03/02 10:05:44;;;;;;;7.47;3.25;;;20.00;51.20;;;;;;5031685;28;20069;-67
2023/03/02 10:08:33;;;;;;;4.68;3.05;;;20.10;51.20;;;;;;5028916;28;20594;-74
2023/03/02 10:11:26;;;;;;;5.72;2.90;;;20.00;51.20;;;;;;5011485;28;20121;-69
2023/03/02 10:14:11;;;;;;;5.13;2.63;;;20.10;51.40;;;;;;5018059;28;20123;-70
2023/03/02 10:16:47;;;;;;;4.85;2.90;;;20.10;51.40;;;;;;5031484;28;20051;-70
2023/03/02 10:19:23;;;;;;;3.70;2.50;;;20.10;51.60;;;;;;5030717;28;20053;-69
2023/03/02 10:21:53;;;;;;;6.22;2.42;;;20.10;51.50;;;;;;5015399;28;20199;-71
2023/03/02 10:24:38;;;;;;;4.40;2.58;;;20.10;51.50;;;;;;5030946;28;20060;-70
2023/03/02 10:27:27;;;;;;;4.07;2.40;;;20.10;51.50;;;;;;5032636;28;20125;-69
2023/03/02 10:29:58;;;;;;;5.93;2.70;;;20.10;51.60;;;;;;5032972;28;20052;-69
2023/03/02 10:32:30;;;;;;;5.65;2.58;;;20.10;51.60;;;;;;5030088;28;20037;-71
2023/03/02 10:34:56;;;;;;;6.05;2.60;;;20.10;51.60;;;;;;5015441;28;21302;-70
2023/03/02 10:37:28;;;;;;;4.10;2.60;;;20.10;51.60;;;;;;5032679;28;20092;-72
2023/03/02 10:39:54;;;;;;;5.70;2.78;;;20.10;51.60;;;;;;5022080;28;20038;-70
2023/03/02 10:42:28;;;;;;;3.75;2.30;;;20.10;51.60;;;;;;5042637;28;20049;-69
2023/03/02 10:45:26;;;;;;;4.13;2.30;;;20.10;51.50;;;;;;5015510;28;20053;-70
2023/03/02 10:48:01;;;;;;;4.95;2.58;;;20.10;51.60;;;;;;5014302;28;20081;-71
2023/03/02 10:50:29;;;;;;;6.40;2.38;;;20.10;51.60;;;;;;5030359;28;20045;-72
2023/03/02 10:52:55;;;;;;;3.95;2.10;;;20.10;51.60;;;;;;5031561;28;20408;-73
2023/03/02 10:55:20;;;;;;;4.47;2.20;;;20.10;51.60;;;;;;5032276;28;20477;-72
2023/03/02 10:58:19;;;;;;;4.63;2.00;;;20.10;51.60;;;;;;5032338;28;20037;-73
2023/03/02 11:00:54;;;;;;;4.85;2.30;;;20.10;51.50;;;;;;5023901;28;20416;-73
2023/03/02 11:03:21;;;;;;;4.32;2.42;;;20.10;51.50;;;;;;5031380;28;20041;-72
2023/03/02 11:05:46;;;;;;;4.13;1.88;;;20.10;51.50;;;;;;5037807;28;20044;-72
2023/03/02 11:08:20;;;;;;;2.92;1.83;;;20.10;51.50;;;;;;5051340;28;20048;-72
2023/03/02 11:10:57;;;;;;;4.20;2.30;;;20.10;51.50;;;;;;5039290;28;20045;-73
2023/03/02 11:13:29;;;;;;;3.00;1.80;;;20.10;51.50;;;;;;5029856;28;20050;-73
2023/03/02 11:15:59;;;;;;;3.47;1.90;;;20.10;51.60;;;;;;5032729;28;20053;-71
2023/03/02 11:18:39;;;;;;;3.45;2.10;;;20.10;51.60;;;;;;5031272;28;20053;-71
2023/03/02 11:21:07;;;;;;;3.92;2.20;;;20.10;51.60;;;;;;5031272;28;20054;-73
2023/03/02 11:24:10;;;;;;;4.40;2.13;;;20.10;51.70;;;;;;5030525;28;20042;-71
2023/03/02 11:26:49;;;;;;;3.10;2.22;;;20.10;51.80;;;;;;5033027;28;20049;-71
2023/03/02 11:29:30;;;;;;;3.33;1.95;;;20.10;51.80;;;;;;5034539;28;20513;-68
2023/03/02 11:32:07;;;;;;;4.13;2.25;;;20.10;51.80;;;;;;5034037;28;20060;-73
2023/03/02 11:34:56;;;;;;;3.40;1.77;;;20.10;51.80;;;;;;5034556;28;20405;-72
2023/03/02 11:37:22;;;;;;;4.40;2.22;;;20.10;51.90;;;;;;5034319;28;20438;-72
2023/03/02 11:39:48;;;;;;;3.83;2.00;;;20.10;51.80;;;;;;5034207;28;20037;-72
2023/03/02 11:42:19;;;;;;;3.65;1.83;;;20.10;51.80;;;;;;5033613;28;20145;-72
2023/03/02 11:44:46;;;;;;;3.53;2.08;;;20.10;51.90;;;;;;5035478;28;20056;-72
2023/03/02 11:47:11;;;;;;;4.45;1.92;;;20.10;51.90;;;;;;5016967;28;20131;-72
2023/03/02 11:49:44;;;;;;;4.22;1.80;;;20.20;52.00;;;;;;5033185;28;20132;-72
2023/03/02 11:52:36;;;;;;;3.63;2.03;;;20.20;52.00;;;;;;5018635;28;20101;-72
2023/03/02 11:55:17;;;;;;;4.22;1.92;;;20.20;52.00;;;;;;5032724;28;20054;-71
2023/03/02 11:57:51;;;;;;;3.03;1.80;;;20.10;51.90;;;;;;5033990;28;20041;-71
2023/03/02 12:00:34;;;;;;;3.88;1.70;;;20.10;52.00;;;;;;5035256;28;20477;-72
2023/03/02 12:03:01;;;;;;;2.75;1.73;;;20.10;51.90;;;;;;5014880;28;20033;-73
2023/03/02 12:05:29;;;;;;;2.90;1.63;;;20.10;52.00;;;;;;5021699;28;20046;-74
2023/03/02 12:07:58;;;;;;;3.13;1.70;;;20.10;52.00;;;;;;5014239;28;20054;-75
2023/03/02 12:10:30;;;;;;;3.08;1.88;;;20.10;52.00;;;;;;5019356;28;20045;-75
2023/03/02 12:13:11;;;;;;;2.25;1.42;;;20.10;52.00;;;;;;5034388;28;20051;-75
2023/03/02 12:15:44;;;;;;;4.93;2.10;;;20.10;52.00;;;;;;5034575;28;20050;-75
2023/03/02 12:18:19;;;;;;;2.45;1.58;;;20.20;52.00;;;;;;5032397;28;20053;-73
2023/03/02 12:20:44;;;;;;;2.45;1.60;;;20.20;52.00;;;;;;5037322;28;20140;-74
2023/03/02 12:23:21;;;;;;;2.95;1.80;;;20.20;51.90;;;;;;5034915;28;20553;-74
2023/03/02 12:25:50;;;;;;;3.05;1.92;;;20.20;51.90;;;;;;5036465;28;20037;-74
2023/03/02 12:28:32;;;;;;;3.03;1.60;;;20.20;51.90;;;;;;5034662;28;20080;-74
2023/03/02 12:31:08;;;;;;;2.45;1.58;;;20.20;51.80;;;;;;5033349;28;20087;-75
2023/03/02 12:33:42;;;;;;;4.20;1.80;;;20.20;51.90;;;;;;5034228;28;20042;-75
2023/03/02 12:36:30;;;;;;;5.97;2.30;;;20.20;51.90;;;;;;5036339;28;20045;-73
2023/03/02 12:39:24;;;;;;;4.72;2.20;;;20.20;51.80;;;;;;5015295;28;20055;-69
2023/03/02 12:41:57;;;;;;;5.43;2.72;;;20.20;51.80;;;;;;4996183;28;20503;-69
2023/03/02 12:45:12;;;;;;;7.63;3.03;;;20.20;51.80;;;;;;5013993;28;20050;-70
2023/03/02 12:47:38;;;;;;;7.18;3.50;;;20.20;51.40;;;;;;5009595;28;20100;-69
2023/03/02 12:50:05;;;;;;;7.90;3.22;;;20.20;52.20;;;;;;5023228;28;20090;-69
2023/03/02 12:52:35;;;;;;;9.85;3.15;;;20.20;51.50;;;;;;5031604;28;20037;-69
2023/03/02 12:55:06;;;;;;;6.03;3.15;;;20.20;51.50;;;;;;5034276;28;20046;-69
2023/03/02 12:57:32;;;;;;;7.70;3.03;;;20.20;51.50;;;;;;5032832;28;20045;-69